Time;durP1;ratioP1;P1;durP2;ratioP2;P2;SDS_P1;SDS_P2;PMS_P1;PMS_P2;Temp;Humidity;BMP_temperature;BMP_pressure;BME280_temperature;BME280_humidity;BME280_pressure;Samples;Min_cycle;Max_cycle;Signal;HPM_P1;HPM_P2
2023/12/03 00:02:27;;;;;;;14.57;5.57;;;-0.70;98.00;;;;;;4973730;28;20478;-69
2023/12/03 00:04:58;;;;;;;13.67;5.40;;;-0.60;98.00;;;;;;4973417;28;20471;-69
2023/12/03 00:07:25;;;;;;;12.03;5.00;;;-0.50;98.00;;;;;;4973301;28;20463;-69
2023/12/03 00:09:52;;;;;;;12.17;4.40;;;-0.60;98.00;;;;;;4973291;28;20472;-69
2023/12/03 00:12:19;;;;;;;12.40;5.73;;;-0.70;98.00;;;;;;4973149;28;20762;-69
2023/12/03 00:14:49;;;;;;;12.60;5.30;;;-0.70;98.00;;;;;;4973426;28;20465;-69
2023/12/03 00:17:16;;;;;;;14.03;5.63;;;-0.60;98.00;;;;;;4973066;28;20467;-68
2023/12/03 00:19:43;;;;;;;12.70;5.63;;;-0.70;98.00;;;;;;4973028;28;20923;-68
2023/12/03 00:22:12;;;;;;;12.30;5.20;;;-0.70;98.00;;;;;;4973061;28;20451;-68
2023/12/03 00:24:39;;;;;;;13.47;5.43;;;-0.80;98.00;;;;;;4973025;28;20522;-68
2023/12/03 00:27:06;;;;;;;16.10;5.90;;;-0.70;98.00;;;;;;4973094;28;20459;-68
2023/12/03 00:29:33;;;;;;;9.80;5.00;;;-0.80;98.00;;;;;;4972661;28;20453;-69
2023/12/03 00:32:00;;;;;;;11.20;5.50;;;-0.70;98.00;;;;;;4973015;28;20556;-69
2023/12/03 00:34:27;;;;;;;11.00;5.07;;;-0.70;98.00;;;;;;4972726;28;20456;-69
2023/12/03 00:36:55;;;;;;;12.57;5.97;;;-0.70;98.00;;;;;;4972626;28;20486;-69
2023/12/03 00:39:24;;;;;;;14.23;5.97;;;-0.70;98.00;;;;;;4972693;28;20452;-69
2023/12/03 00:41:51;;;;;;;10.87;5.10;;;-0.70;98.00;;;;;;4972823;28;20447;-69
2023/12/03 00:44:19;;;;;;;14.97;5.30;;;-0.80;98.00;;;;;;4972593;28;20870;-69
2023/12/03 00:46:46;;;;;;;11.60;5.33;;;-0.80;98.00;;;;;;4972473;28;20451;-69
2023/12/03 00:49:13;;;;;;;12.60;5.77;;;-0.70;98.00;;;;;;4972988;28;20455;-69
2023/12/03 00:51:41;;;;;;;9.73;4.93;;;-0.70;98.00;;;;;;4973348;28;20463;-69
2023/12/03 00:54:08;;;;;;;13.27;5.60;;;-0.60;98.00;;;;;;4973328;28;20472;-69
2023/12/03 00:56:36;;;;;;;12.00;4.83;;;-0.60;98.00;;;;;;4973085;28;20544;-69
2023/12/03 00:59:04;;;;;;;11.70;4.50;;;-0.50;98.00;;;;;;4972381;28;20946;-69
2023/12/03 01:01:31;;;;;;;11.00;4.33;;;-0.70;98.00;;;;;;4972448;28;20459;-69
2023/12/03 01:03:58;;;;;;;12.40;5.07;;;-0.80;98.00;;;;;;4972177;28;20466;-69
2023/12/03 01:06:25;;;;;;;16.53;5.63;;;-0.80;98.00;;;;;;4972476;28;20971;-69
2023/12/03 01:08:52;;;;;;;17.60;6.23;;;-0.70;98.00;;;;;;4972274;28;20460;-69
2023/12/03 01:11:19;;;;;;;12.63;6.13;;;-0.70;98.00;;;;;;4972719;28;20465;-69
2023/12/03 01:13:50;;;;;;;11.53;4.60;;;-0.80;98.00;;;;;;4972694;28;20466;-69
2023/12/03 01:16:18;;;;;;;10.57;5.00;;;-0.80;98.00;;;;;;5156594;23;20876;-67
2023/12/03 01:18:45;;;;;;;10.43;4.83;;;-0.80;98.00;;;;;;4952801;28;20480;-67
2023/12/03 01:21:12;;;;;;;12.93;5.47;;;-0.80;98.00;;;;;;4952951;28;20504;-66
2023/12/03 01:23:39;;;;;;;8.67;4.60;;;-0.70;98.00;;;;;;4952869;28;20528;-67
2023/12/03 01:26:07;;;;;;;10.17;4.80;;;-0.60;98.00;;;;;;4953149;28;20460;-66
2023/12/03 01:28:34;;;;;;;10.70;4.50;;;-0.60;98.00;;;;;;4952784;28;20461;-66
2023/12/03 01:31:03;;;;;;;13.40;5.57;;;-0.50;98.00;;;;;;4952927;28;20483;-67
2023/12/03 01:33:30;;;;;;;9.53;4.87;;;-0.60;98.00;;;;;;4952957;28;20514;-67
2023/12/03 01:35:57;;;;;;;14.93;5.00;;;-0.50;98.00;;;;;;4959099;28;21049;-67
2023/12/03 01:38:24;;;;;;;11.73;4.37;;;-0.60;98.00;;;;;;4972393;28;20449;-66
2023/12/03 01:40:55;;;;;;;9.07;4.60;;;-0.50;98.00;;;;;;4973543;28;20459;-66
2023/12/03 01:43:22;;;;;;;10.37;4.80;;;-0.60;98.00;;;;;;4975808;28;20476;-66
2023/12/03 01:45:50;;;;;;;9.87;5.00;;;-0.60;98.00;;;;;;4975705;28;20467;-66
2023/12/03 01:48:18;;;;;;;9.40;5.03;;;-0.70;98.00;;;;;;4976004;28;20463;-66
2023/12/03 01:50:49;;;;;;;11.77;4.70;;;-0.70;98.00;;;;;;4974402;28;20519;-67
2023/12/03 01:53:18;;;;;;;10.30;5.00;;;-0.70;98.00;;;;;;4975512;28;20494;-67
2023/12/03 01:55:45;;;;;;;10.80;4.90;;;-0.60;98.00;;;;;;4975509;28;20555;-67
2023/12/03 01:58:12;;;;;;;10.07;4.70;;;-0.70;98.00;;;;;;4975220;28;20456;-66
2023/12/03 02:00:39;;;;;;;10.17;4.27;;;-0.70;98.00;;;;;;4975347;28;20452;-67
2023/12/03 02:03:06;;;;;;;11.90;5.30;;;-0.70;98.00;;;;;;4975358;28;20494;-67
2023/12/03 02:05:34;;;;;;;11.43;4.90;;;-0.70;98.00;;;;;;4975354;28;20456;-67
2023/12/03 02:08:04;;;;;;;10.03;4.80;;;-0.80;98.00;;;;;;4975194;28;20454;-67
2023/12/03 02:10:31;;;;;;;10.17;4.67;;;-0.80;98.00;;;;;;4974793;28;20473;-66
2023/12/03 02:12:59;;;;;;;9.70;4.63;;;-0.70;98.00;;;;;;4975012;28;20460;-67
2023/12/03 02:15:26;;;;;;;9.83;4.67;;;-0.60;98.00;;;;;;4974850;28;21073;-67
2023/12/03 02:17:53;;;;;;;13.27;5.80;;;-0.60;98.00;;;;;;4975003;28;20547;-66
2023/12/03 02:20:20;;;;;;;10.73;4.83;;;-0.70;98.00;;;;;;4975106;28;20478;-66
2023/12/03 02:23:00;;;;;;;11.30;5.50;;;-0.70;98.00;;;;;;4974851;28;20507;-67
2023/12/03 02:25:27;;;;;;;11.33;4.50;;;-0.70;98.00;;;;;;4975111;28;20494;-67
2023/12/03 02:27:55;;;;;;;12.47;5.50;;;-0.70;98.00;;;;;;4974708;28;20455;-66
2023/12/03 02:30:22;;;;;;;7.70;4.33;;;-0.70;98.00;;;;;;4974680;28;20827;-67
2023/12/03 02:32:49;;;;;;;9.57;4.23;;;-0.80;98.00;;;;;;4974768;28;20456;-67
2023/12/03 02:35:16;;;;;;;9.67;4.60;;;-0.70;98.00;;;;;;4973540;28;20458;-67
2023/12/03 02:37:43;;;;;;;9.53;4.67;;;-0.70;98.00;;;;;;4974415;28;21032;-67
2023/12/03 02:40:12;;;;;;;11.43;4.43;;;-0.70;98.00;;;;;;4974740;28;20457;-67
2023/12/03 02:42:39;;;;;;;10.80;5.30;;;-0.60;98.00;;;;;;4973280;28;20471;-67
2023/12/03 02:45:08;;;;;;;15.07;5.90;;;-0.70;98.00;;;;;;4974535;28;20464;-67
2023/12/03 02:47:35;;;;;;;13.57;4.73;;;-0.70;98.00;;;;;;4975047;28;20892;-67
2023/12/03 02:50:03;;;;;;;9.60;4.37;;;-0.70;98.00;;;;;;4957367;28;20468;-67
2023/12/03 02:52:30;;;;;;;11.43;5.00;;;-0.80;98.00;;;;;;4974388;28;20471;-67
2023/12/03 02:54:57;;;;;;;12.77;5.47;;;-0.80;98.00;;;;;;4974402;28;20450;-67
2023/12/03 02:57:25;;;;;;;18.17;5.50;;;-0.80;98.00;;;;;;4974235;28;20534;-68
2023/12/03 02:59:52;;;;;;;12.07;5.20;;;-0.80;98.00;;;;;;4974321;28;20462;-67
2023/12/03 03:02:20;;;;;;;10.20;4.50;;;-0.70;98.00;;;;;;4974547;28;20853;-67
2023/12/03 03:04:47;;;;;;;11.67;5.17;;;-0.70;98.00;;;;;;4974205;28;20464;-66
2023/12/03 03:07:15;;;;;;;8.47;4.37;;;-0.70;98.00;;;;;;4974213;28;20462;-67
2023/12/03 03:09:42;;;;;;;14.07;4.77;;;-0.50;98.00;;;;;;4974219;28;20475;-67
2023/12/03 03:12:09;;;;;;;10.70;4.80;;;-0.50;98.00;;;;;;4974230;28;20463;-67
2023/12/03 03:14:38;;;;;;;15.40;5.50;;;-0.50;98.00;;;;;;4973873;28;20455;-67
2023/12/03 03:17:05;;;;;;;14.87;5.47;;;-0.50;98.00;;;;;;4974058;28;20488;-67
2023/12/03 03:19:32;;;;;;;11.60;4.90;;;-0.60;98.00;;;;;;4974078;28;20463;-67
2023/12/03 03:22:03;;;;;;;12.13;4.97;;;-0.60;98.00;;;;;;4973020;28;20819;-67
2023/12/03 03:24:30;;;;;;;11.37;4.87;;;-0.60;98.00;;;;;;4974176;28;20494;-67
2023/12/03 03:26:57;;;;;;;9.23;4.20;;;-0.70;98.00;;;;;;4973753;28;20455;-67
2023/12/03 03:29:31;;;;;;;14.80;4.90;;;-0.80;98.00;;;;;;4973899;28;20867;-67
2023/12/03 03:32:00;;;;;;;14.80;5.40;;;-0.90;98.00;;;;;;4974011;28;20487;-67
2023/12/03 03:34:27;;;;;;;8.87;4.40;;;-0.90;98.00;;;;;;4973813;28;20870;-67
2023/12/03 03:36:55;;;;;;;14.10;5.17;;;-0.70;98.00;;;;;;4972274;28;20858;-68
2023/12/03 03:39:23;;;;;;;13.43;5.75;;;-0.70;98.00;;;;;;4973684;28;20873;-67
2023/12/03 03:41:50;;;;;;;9.90;4.57;;;-0.60;98.00;;;;;;4973536;28;20208;-67
2023/12/03 03:44:17;;;;;;;12.30;5.33;;;-0.60;98.00;;;;;;4973289;28;20486;-67
2023/12/03 03:46:44;;;;;;;7.60;3.90;;;-0.50;98.00;;;;;;4973313;28;20468;-67
2023/12/03 03:49:12;;;;;;;11.70;4.77;;;-0.50;98.00;;;;;;4973322;28;20862;-67
2023/12/03 03:51:39;;;;;;;10.40;4.70;;;-0.60;98.00;;;;;;4973329;28;20831;-67
2023/12/03 03:54:07;;;;;;;10.77;4.23;;;-0.60;98.00;;;;;;4973326;28;20519;-68
2023/12/03 03:56:34;;;;;;;10.37;4.53;;;-0.60;98.00;;;;;;4973163;28;20578;-67
2023/12/03 03:59:01;;;;;;;9.68;4.53;;;-0.50;98.00;;;;;;4973357;28;20462;-67
2023/12/03 04:01:29;;;;;;;10.27;4.00;;;-0.70;98.00;;;;;;4973173;28;20677;-67
2023/12/03 04:03:56;;;;;;;12.47;4.70;;;-0.80;98.00;;;;;;4972632;28;20456;-67
2023/12/03 04:06:25;;;;;;;9.50;4.67;;;-0.90;98.00;;;;;;4973117;28;20883;-67
2023/12/03 04:08:52;;;;;;;6.50;4.20;;;-0.90;98.00;;;;;;4971785;28;20463;-68
2023/12/03 04:11:19;;;;;;;11.60;4.20;;;-0.90;98.00;;;;;;4972965;28;20872;-67
2023/12/03 04:13:46;;;;;;;11.83;4.80;;;-1.00;98.00;;;;;;4972990;28;20456;-67
2023/12/03 04:16:23;;;;;;;11.83;5.13;;;-1.10;98.00;;;;;;4972775;28;20516;-67
2023/12/03 04:18:54;;;;;;;10.70;4.30;;;-1.10;98.00;;;;;;4972802;28;20580;-67
2023/12/03 04:21:21;;;;;;;9.87;4.50;;;-1.10;98.00;;;;;;4972958;28;20459;-67
2023/12/03 04:23:49;;;;;;;10.10;4.47;;;-1.10;98.00;;;;;;4972656;28;20451;-66
2023/12/03 04:26:16;;;;;;;6.87;4.03;;;-1.10;98.00;;;;;;4972776;28;20509;-67
2023/12/03 04:28:43;;;;;;;9.13;4.20;;;-1.10;98.00;;;;;;4972733;28;20459;-66
2023/12/03 04:33:58;;;;;;;10.50;4.90;;;-0.90;98.00;;;;;;5252561;23;20483;-66
2023/12/03 04:36:26;;;;;;;10.93;5.00;;;-0.90;98.00;;;;;;4973435;28;20490;-66
2023/12/03 04:39:04;;;;;;;14.07;5.13;;;-1.00;98.00;;;;;;4972973;28;20460;-66
2023/12/03 04:41:35;;;;;;;8.87;4.47;;;-0.80;98.00;;;;;;4972731;28;20514;-67
2023/12/03 04:44:02;;;;;;;13.57;5.10;;;-0.80;98.00;;;;;;4972555;28;20461;-66
2023/12/03 04:46:29;;;;;;;9.53;5.00;;;-0.70;98.00;;;;;;4972559;28;20511;-67
2023/12/03 04:48:56;;;;;;;12.10;4.77;;;-0.70;98.00;;;;;;4972468;28;20451;-66
2023/12/03 04:51:23;;;;;;;10.50;4.63;;;-0.80;98.00;;;;;;4972920;28;20839;-66
2023/12/03 04:53:51;;;;;;;8.70;4.20;;;-0.80;98.00;;;;;;4973009;28;20455;-66
2023/12/03 04:56:19;;;;;;;10.77;4.13;;;-0.80;98.00;;;;;;4973312;28;20547;-66
2023/12/03 04:58:46;;;;;;;16.07;4.87;;;-0.80;98.00;;;;;;4972848;28;20454;-67
2023/12/03 05:01:13;;;;;;;9.40;3.90;;;-0.80;98.00;;;;;;4972540;28;20459;-66
2023/12/03 05:03:40;;;;;;;11.63;4.00;;;-0.80;98.00;;;;;;4972276;28;20458;-66
2023/12/03 05:06:08;;;;;;;10.90;4.83;;;-0.80;98.00;;;;;;4972619;28;20963;-67
2023/12/03 05:08:35;;;;;;;9.87;4.27;;;-0.80;98.00;;;;;;4972495;28;20461;-67
2023/12/03 05:11:04;;;;;;;9.47;4.00;;;-0.80;98.00;;;;;;4987294;28;20968;-68
2023/12/03 05:13:33;;;;;;;13.80;4.50;;;-0.70;98.00;;;;;;4972558;28;20878;-66
2023/12/03 05:16:02;;;;;;;12.87;4.60;;;-0.70;98.00;;;;;;4973973;28;20466;-67
2023/12/03 05:18:29;;;;;;;9.77;4.43;;;-0.60;98.00;;;;;;4976373;28;20495;-67
2023/12/03 05:20:57;;;;;;;15.00;4.57;;;-0.60;98.00;;;;;;4976219;28;20457;-67
2023/12/03 05:23:24;;;;;;;9.50;4.93;;;-0.60;98.00;;;;;;4976177;28;20490;-67
2023/12/03 05:25:51;;;;;;;13.33;5.07;;;-0.70;98.00;;;;;;4976069;28;20459;-66
2023/12/03 05:28:18;;;;;;;13.10;4.73;;;-0.80;98.00;;;;;;4976191;28;20502;-66
2023/12/03 05:30:46;;;;;;;8.87;4.33;;;-0.90;98.00;;;;;;4975941;28;20447;-66
2023/12/03 05:33:14;;;;;;;12.67;5.10;;;-0.80;98.00;;;;;;4975923;28;20465;-67
2023/12/03 05:35:41;;;;;;;16.87;4.87;;;-0.80;98.00;;;;;;4975856;28;20502;-66
2023/12/03 05:38:08;;;;;;;12.40;5.10;;;-0.80;98.00;;;;;;4975692;28;20494;-66
2023/12/03 05:40:35;;;;;;;14.50;5.43;;;-0.80;98.00;;;;;;4976008;28;20472;-66
2023/12/03 05:43:03;;;;;;;10.33;4.77;;;-0.90;98.00;;;;;;4975787;28;20513;-66
2023/12/03 05:45:30;;;;;;;11.40;4.87;;;-1.00;98.00;;;;;;4974744;28;20451;-67
2023/12/03 05:47:58;;;;;;;7.40;3.87;;;-1.20;98.00;;;;;;4975688;28;20462;-66
2023/12/03 05:50:25;;;;;;;12.60;5.17;;;-1.30;98.00;;;;;;4975798;28;20450;-66
2023/12/03 05:52:52;;;;;;;12.80;5.47;;;-1.60;98.00;;;;;;4975434;28;20459;-66
2023/12/03 05:55:21;;;;;;;15.03;5.00;;;-1.70;98.00;;;;;;4975524;28;20462;-67
2023/12/03 05:57:49;;;;;;;10.87;4.30;;;-1.70;98.00;;;;;;4975452;28;20495;-67
2023/12/03 06:00:16;;;;;;;7.60;4.18;;;-1.70;98.00;;;;;;4990430;28;20485;-66
2023/12/03 06:02:44;;;;;;;9.93;4.37;;;-1.80;98.00;;;;;;4990121;28;20235;-66
2023/12/03 06:05:12;;;;;;;9.60;4.17;;;-1.80;98.00;;;;;;4990234;28;20458;-66
2023/12/03 06:07:39;;;;;;;8.97;4.33;;;-1.70;98.00;;;;;;4990061;28;20455;-66
2023/12/03 06:10:09;;;;;;;9.63;4.55;;;-1.90;98.00;;;;;;4975535;28;20478;-67
2023/12/03 06:12:36;;;;;;;8.60;4.00;;;-2.10;98.00;;;;;;4975022;28;20238;-67
2023/12/03 06:15:04;;;;;;;7.65;3.92;;;-2.30;98.00;;;;;;4975276;28;20220;-67
2023/12/03 06:17:31;;;;;;;12.00;4.90;;;-2.20;98.00;;;;;;4975165;28;20270;-66
2023/12/03 06:19:58;;;;;;;9.32;4.32;;;-2.30;98.00;;;;;;4989897;28;20262;-67
2023/12/03 06:22:26;;;;;;;11.90;4.53;;;-2.60;98.00;;;;;;4975088;28;20268;-66
2023/12/03 06:24:53;;;;;;;12.00;5.07;;;-2.50;98.00;;;;;;4974854;28;20244;-67
2023/12/03 06:27:20;;;;;;;10.02;4.70;;;-2.60;98.00;;;;;;4974195;28;20213;-67
2023/12/03 06:29:47;;;;;;;12.45;5.32;;;-2.60;98.00;;;;;;4974684;28;20203;-66
2023/12/03 06:32:14;;;;;;;11.00;4.60;;;-2.60;98.00;;;;;;4974688;28;20205;-66
2023/12/03 06:34:41;;;;;;;7.43;3.43;;;-2.70;98.00;;;;;;4974676;28;20456;-68
2023/12/03 06:37:08;;;;;;;12.40;5.63;;;-2.70;98.00;;;;;;4974553;28;20490;-66
2023/12/03 06:39:37;;;;;;;10.85;3.95;;;-2.60;98.00;;;;;;4974555;28;20454;-67
2023/12/03 06:42:06;;;;;;;9.43;4.00;;;-2.60;98.00;;;;;;4974753;28;20198;-67
2023/12/03 06:44:33;;;;;;;8.30;4.30;;;-2.80;98.00;;;;;;4974886;28;20214;-67
2023/12/03 06:47:00;;;;;;;10.52;4.30;;;-2.80;98.00;;;;;;4974728;28;20210;-66
2023/12/03 06:49:27;;;;;;;12.37;5.53;;;-2.80;98.00;;;;;;4974594;28;20194;-66
2023/12/03 06:51:54;;;;;;;12.03;4.50;;;-2.80;98.00;;;;;;4989490;28;20606;-66
2023/12/03 06:54:21;;;;;;;7.88;4.07;;;-2.80;98.00;;;;;;4974734;28;20516;-66
2023/12/03 06:56:50;;;;;;;13.53;5.30;;;-2.70;98.00;;;;;;4974240;28;20217;-68
2023/12/03 06:59:17;;;;;;;14.07;4.43;;;-2.80;98.00;;;;;;4974450;28;20454;-66
2023/12/03 07:01:44;;;;;;;13.43;5.20;;;-2.80;98.00;;;;;;4974442;28;20203;-66
2023/12/03 07:04:11;;;;;;;14.20;5.13;;;-2.80;98.00;;;;;;4974240;28;20206;-66
2023/12/03 07:06:38;;;;;;;19.93;5.50;;;-2.80;98.00;;;;;;4974174;28;20253;-67
2023/12/03 07:09:05;;;;;;;15.55;5.97;;;-2.90;98.00;;;;;;4974062;28;20458;-62
2023/12/03 07:11:32;;;;;;;12.40;5.07;;;-2.90;98.00;;;;;;4974133;28;20298;-62
2023/12/03 07:14:01;;;;;;;10.55;4.00;;;-3.00;98.00;;;;;;4974026;28;20207;-62
2023/12/03 07:16:28;;;;;;;13.05;5.32;;;-3.00;98.00;;;;;;4973944;28;20213;-63
2023/12/03 07:18:55;;;;;;;13.50;5.93;;;-3.00;98.00;;;;;;4973855;28;20227;-62
2023/12/03 07:21:22;;;;;;;12.63;6.50;;;-2.90;98.00;;;;;;4974072;28;20623;-67
2023/12/03 07:23:52;;;;;;;12.82;5.30;;;-3.00;98.00;;;;;;4973701;28;20457;-63
2023/12/03 07:26:19;;;;;;;12.57;5.32;;;-3.10;98.00;;;;;;4974052;28;20300;-63
2023/12/03 07:28:47;;;;;;;15.52;5.55;;;-3.00;98.00;;;;;;4973643;28;20218;-63
2023/12/03 07:31:16;;;;;;;11.73;4.93;;;-3.00;98.00;;;;;;4973560;28;20206;-63
2023/12/03 07:33:43;;;;;;;11.35;4.80;;;-3.10;98.00;;;;;;4973497;28;20210;-63
2023/12/03 07:36:11;;;;;;;8.93;4.63;;;-3.10;98.00;;;;;;4973612;28;20213;-63
2023/12/03 07:38:39;;;;;;;11.23;4.78;;;-3.10;98.00;;;;;;4972772;28;20293;-63
2023/12/03 07:41:10;;;;;;;13.93;6.13;;;-3.20;98.00;;;;;;4973813;28;20265;-63
2023/12/03 07:43:37;;;;;;;18.10;6.97;;;-3.10;98.00;;;;;;4973768;28;20206;-63
2023/12/03 07:46:05;;;;;;;11.70;4.32;;;-3.00;98.00;;;;;;4973632;28;20204;-63
2023/12/03 07:48:34;;;;;;;12.48;4.78;;;-3.00;98.00;;;;;;4973387;28;20216;-63
2023/12/03 07:51:01;;;;;;;11.50;4.82;;;-2.90;98.00;;;;;;4973517;28;20223;-63
2023/12/03 07:53:28;;;;;;;8.93;4.38;;;-3.00;98.00;;;;;;4973568;28;20210;-63
2023/12/03 07:55:55;;;;;;;11.38;5.07;;;-3.10;98.00;;;;;;4973317;28;20205;-63
2023/12/03 07:58:23;;;;;;;9.60;4.53;;;-3.10;98.00;;;;;;4973175;28;20227;-63
2023/12/03 08:00:50;;;;;;;13.30;5.75;;;-3.20;98.00;;;;;;4973536;28;20210;-65
2023/12/03 08:03:17;;;;;;;24.08;7.03;;;-3.10;98.00;;;;;;4973433;28;20202;-63
2023/12/03 08:05:46;;;;;;;14.88;6.03;;;-3.00;98.00;;;;;;4973623;28;20672;-62
2023/12/03 08:08:13;;;;;;;16.92;6.93;;;-3.00;98.00;;;;;;5163615;23;20838;-63
2023/12/03 08:10:40;;;;;;;14.35;5.90;;;-3.10;98.00;;;;;;4973703;28;20202;-63
2023/12/03 08:13:07;;;;;;;15.75;5.93;;;-3.00;98.00;;;;;;4973690;28;20217;-63
2023/12/03 08:15:34;;;;;;;14.50;5.10;;;-2.90;98.00;;;;;;4973796;28;20684;-63
2023/12/03 08:18:01;;;;;;;13.02;5.70;;;-2.80;98.00;;;;;;4973534;28;20235;-63
2023/12/03 08:20:28;;;;;;;12.07;5.53;;;-2.60;98.00;;;;;;4973691;28;20599;-63
2023/12/03 08:22:57;;;;;;;14.75;5.93;;;-2.70;98.00;;;;;;4973559;28;20453;-63
2023/12/03 08:25:24;;;;;;;14.87;6.10;;;-2.50;98.00;;;;;;4973551;28;20638;-62
2023/12/03 08:27:51;;;;;;;13.93;5.90;;;-2.50;98.00;;;;;;4973738;28;20477;-62
2023/12/03 08:30:18;;;;;;;9.93;4.67;;;-2.50;98.00;;;;;;4973655;28;20307;-64
2023/12/03 08:32:46;;;;;;;13.20;5.82;;;-2.40;98.00;;;;;;4973568;28;20453;-63
2023/12/03 08:35:13;;;;;;;15.82;6.75;;;-2.30;98.00;;;;;;4973701;28;20209;-62
2023/12/03 08:37:40;;;;;;;13.77;5.78;;;-2.40;98.00;;;;;;4973329;28;20567;-63
2023/12/03 08:40:09;;;;;;;15.32;6.40;;;-2.40;98.00;;;;;;4973304;28;20213;-63
2023/12/03 08:42:39;;;;;;;14.95;5.40;;;-2.40;98.00;;;;;;4973267;28;20219;-63
2023/12/03 08:45:07;;;;;;;15.83;5.60;;;-2.40;98.00;;;;;;4973802;28;20261;-62
2023/12/03 08:47:34;;;;;;;12.30;4.77;;;-2.20;98.00;;;;;;4973401;28;20450;-63
2023/12/03 08:50:01;;;;;;;10.13;4.83;;;-2.00;98.00;;;;;;4972283;28;20469;-63
2023/12/03 08:52:28;;;;;;;11.55;5.22;;;-2.00;98.00;;;;;;4973196;28;20465;-62
2023/12/03 08:54:55;;;;;;;13.38;5.07;;;-2.10;98.00;;;;;;4972623;28;20207;-62
2023/12/03 08:57:25;;;;;;;12.93;5.63;;;-2.00;98.00;;;;;;4971744;28;20582;-63
2023/12/03 08:59:53;;;;;;;13.20;5.40;;;-1.90;98.00;;;;;;4973286;28;20214;-63
2023/12/03 09:02:21;;;;;;;18.23;6.18;;;-1.90;98.00;;;;;;4973104;28;20447;-63
2023/12/03 09:04:50;;;;;;;11.65;5.63;;;-1.90;98.00;;;;;;4973048;28;20240;-63
2023/12/03 09:07:18;;;;;;;14.73;4.80;;;-1.80;98.00;;;;;;4972684;28;20293;-64
2023/12/03 09:09:45;;;;;;;13.20;5.15;;;-1.80;98.00;;;;;;4972888;28;20466;-63
2023/12/03 09:12:12;;;;;;;14.37;5.10;;;-1.80;98.00;;;;;;4972779;28;20582;-63
2023/12/03 09:14:41;;;;;;;13.00;6.07;;;-1.70;98.00;;;;;;4972535;28;20453;-63
2023/12/03 09:17:09;;;;;;;10.00;4.72;;;-1.70;98.00;;;;;;4972650;28;20509;-64
2023/12/03 09:19:36;;;;;;;12.20;5.00;;;-1.70;98.00;;;;;;4972724;28;20239;-63
2023/12/03 09:22:03;;;;;;;16.10;5.43;;;-1.60;98.00;;;;;;4972997;28;20463;-63
2023/12/03 09:24:30;;;;;;;14.37;5.40;;;-1.50;98.00;;;;;;4973098;28;20803;-63
2023/12/03 09:26:57;;;;;;;12.30;5.70;;;-1.40;98.00;;;;;;4972889;28;20455;-63
2023/12/03 09:29:24;;;;;;;17.53;5.93;;;-1.40;98.00;;;;;;4972930;28;20457;-62
2023/12/03 09:31:52;;;;;;;11.20;5.20;;;-1.30;98.00;;;;;;4987716;28;20468;-63
2023/12/03 09:34:20;;;;;;;14.30;5.70;;;-1.30;98.00;;;;;;4987774;28;20505;-63
2023/12/03 09:36:49;;;;;;;22.77;6.30;;;-1.20;98.00;;;;;;4973036;28;20529;-64
2023/12/03 09:39:17;;;;;;;13.57;6.07;;;-1.20;98.00;;;;;;4987774;28;20513;-63
2023/12/03 09:41:49;;;;;;;17.23;6.20;;;-1.30;98.00;;;;;;4973089;28;20955;-64
2023/12/03 09:44:22;;;;;;;11.83;5.57;;;-1.30;98.00;;;;;;4972839;28;20454;-64
2023/12/03 09:46:53;;;;;;;17.07;6.63;;;-1.10;98.00;;;;;;4972644;28;20502;-63
2023/12/03 09:49:23;;;;;;;16.47;7.00;;;-1.00;98.00;;;;;;4972219;28;20463;-63
2023/12/03 09:51:51;;;;;;;15.30;5.57;;;-1.00;98.00;;;;;;4972214;28;20471;-64
2023/12/03 09:54:19;;;;;;;17.00;5.67;;;-0.90;98.00;;;;;;4972178;28;20590;-63
2023/12/03 09:56:50;;;;;;;15.77;6.43;;;-1.00;98.00;;;;;;4971824;28;20463;-64
2023/12/03 09:59:17;;;;;;;17.05;6.50;;;-1.00;98.00;;;;;;4971730;28;20890;-64
2023/12/03 10:01:45;;;;;;;19.57;7.90;;;-1.00;98.00;;;;;;4973167;28;20580;-64
2023/12/03 10:04:14;;;;;;;14.83;6.27;;;-0.90;98.00;;;;;;4975811;28;20491;-64
2023/12/03 10:06:44;;;;;;;15.97;6.17;;;-0.70;98.00;;;;;;4975878;28;20453;-64
2023/12/03 10:09:13;;;;;;;19.93;6.60;;;-0.60;98.00;;;;;;4975528;28;20502;-63
2023/12/03 10:11:41;;;;;;;13.00;6.13;;;-0.60;98.00;;;;;;4975610;28;20533;-64
2023/12/03 10:14:11;;;;;;;15.03;5.97;;;-0.70;98.00;;;;;;4975395;28;20458;-64
2023/12/03 10:16:38;;;;;;;13.53;6.43;;;-0.80;98.00;;;;;;4975399;28;20458;-64
2023/12/03 10:19:08;;;;;;;19.67;6.60;;;-0.70;98.00;;;;;;4975274;28;20578;-64
2023/12/03 10:21:36;;;;;;;19.80;5.90;;;-0.70;98.00;;;;;;4975385;28;20464;-64
2023/12/03 10:24:05;;;;;;;18.00;6.90;;;-0.70;98.00;;;;;;4975251;28;20453;-63
2023/12/03 10:26:32;;;;;;;13.43;6.20;;;-0.60;98.00;;;;;;4975410;28;20981;-63
2023/12/03 10:29:00;;;;;;;16.00;6.33;;;-0.60;98.00;;;;;;4975228;28;20458;-64
2023/12/03 10:31:30;;;;;;;17.23;6.30;;;-0.40;98.00;;;;;;4975232;28;20546;-64
2023/12/03 10:33:57;;;;;;;16.60;6.50;;;-0.20;98.00;;;;;;4975200;28;20960;-63
2023/12/03 10:36:30;;;;;;;17.27;5.77;;;-0.20;98.00;;;;;;4975508;28;20962;-64
2023/12/03 10:38:58;;;;;;;17.30;6.97;;;0.00;98.00;;;;;;4975181;28;20570;-64
2023/12/03 10:41:26;;;;;;;16.63;6.33;;;0.10;98.00;;;;;;4975455;28;20461;-64
2023/12/03 10:43:52;;;;;;;11.50;4.83;;;0.20;98.00;;;;;;4975215;28;20537;-64
2023/12/03 10:46:19;;;;;;;16.63;5.90;;;0.30;98.00;;;;;;4975223;28;20469;-63
2023/12/03 10:48:47;;;;;;;16.20;5.97;;;0.30;98.00;;;;;;4974990;28;20955;-64
2023/12/03 10:51:14;;;;;;;14.07;5.60;;;0.40;98.00;;;;;;4974800;28;20807;-63
2023/12/03 10:53:41;;;;;;;12.90;5.63;;;0.50;98.00;;;;;;4974526;28;20464;-63
2023/12/03 10:56:10;;;;;;;10.03;4.90;;;0.70;98.00;;;;;;4974389;28;20534;-64
2023/12/03 10:58:39;;;;;;;10.73;5.10;;;0.90;98.00;;;;;;4974233;28;20537;-64
2023/12/03 11:01:09;;;;;;;16.47;5.00;;;0.90;98.00;;;;;;4974563;28;20463;-63
2023/12/03 11:03:56;;;;;;;12.60;5.17;;;1.00;98.00;;;;;;4974518;28;20460;-64
2023/12/03 11:06:25;;;;;;;12.60;6.00;;;1.20;98.00;;;;;;4974530;28;20966;-64
2023/12/03 11:08:53;;;;;;;14.60;5.27;;;1.30;98.00;;;;;;4974075;28;20472;-64
2023/12/03 11:11:22;;;;;;;11.17;5.00;;;1.40;98.00;;;;;;4989189;28;20524;-64
2023/12/03 11:13:52;;;;;;;13.43;5.63;;;1.50;98.00;;;;;;4973194;28;20467;-64
2023/12/03 11:16:20;;;;;;;10.90;4.67;;;1.70;98.00;;;;;;4974114;28;20547;-64
2023/12/03 11:18:53;;;;;;;13.00;5.93;;;1.70;98.00;;;;;;4973975;28;21065;-64
2023/12/03 11:21:26;;;;;;;13.03;5.20;;;1.70;98.00;;;;;;4974165;28;20887;-64
2023/12/03 11:24:29;;;;;;;14.10;4.93;;;1.70;98.00;;;;;;4974071;28;20468;-64
2023/12/03 11:27:02;;;;;;;13.27;5.73;;;1.80;98.00;;;;;;4954072;28;20453;-64
2023/12/03 11:29:48;;;;;;;11.33;5.33;;;1.90;98.00;;;;;;4974165;28;20456;-63
2023/12/03 11:32:15;;;;;;;14.83;6.30;;;2.10;98.00;;;;;;4973376;28;20499;-63
2023/12/03 11:34:43;;;;;;;14.73;5.60;;;2.00;98.00;;;;;;4973842;28;20865;-64
2023/12/03 11:37:10;;;;;;;12.60;5.50;;;2.00;98.00;;;;;;4988886;28;20471;-64
2023/12/03 11:39:42;;;;;;;13.40;5.37;;;2.00;98.00;;;;;;4988619;28;20854;-64
2023/12/03 11:42:13;;;;;;;17.90;5.27;;;2.10;98.00;;;;;;4973654;28;20479;-64
2023/12/03 11:44:41;;;;;;;15.27;5.37;;;2.20;98.00;;;;;;4973682;28;20508;-63
2023/12/03 11:47:09;;;;;;;14.00;5.77;;;2.30;98.00;;;;;;4973676;28;20456;-63
2023/12/03 11:49:37;;;;;;;16.70;4.97;;;2.30;98.00;;;;;;4973498;28;20468;-63
2023/12/03 11:52:05;;;;;;;17.17;5.40;;;2.30;98.00;;;;;;4973755;28;20487;-63
2023/12/03 11:54:38;;;;;;;14.00;5.77;;;2.40;98.00;;;;;;4973427;28;20950;-63
2023/12/03 11:57:14;;;;;;;12.63;5.37;;;2.30;98.00;;;;;;4973469;28;20539;-63
2023/12/03 11:59:43;;;;;;;19.67;6.33;;;2.30;98.00;;;;;;4973205;28;20555;-63
2023/12/03 12:02:10;;;;;;;16.30;6.47;;;2.30;98.00;;;;;;4973262;28;20945;-64
2023/12/03 12:04:37;;;;;;;11.13;5.47;;;2.10;98.00;;;;;;4973217;28;20483;-63
2023/12/03 12:07:15;;;;;;;12.50;5.27;;;2.20;98.00;;;;;;4973279;28;20461;-63
2023/12/03 12:09:43;;;;;;;12.47;4.93;;;2.60;98.00;;;;;;4973230;28;20959;-63
2023/12/03 12:12:10;;;;;;;12.57;4.60;;;3.00;98.00;;;;;;4973555;28;20782;-63
2023/12/03 12:14:39;;;;;;;16.47;6.10;;;3.30;98.00;;;;;;4973076;28;20457;-63
2023/12/03 12:17:09;;;;;;;9.40;4.70;;;3.60;98.00;;;;;;4973266;28;20543;-63
2023/12/03 12:19:36;;;;;;;12.30;5.53;;;3.80;98.00;;;;;;4990436;28;21007;-62
2023/12/03 12:22:03;;;;;;;13.37;5.80;;;4.10;98.00;;;;;;4992595;28;20468;-63
2023/12/03 12:24:30;;;;;;;12.07;5.63;;;4.20;98.00;;;;;;4992202;28;20462;-63
2023/12/03 12:26:58;;;;;;;16.53;5.20;;;4.30;98.00;;;;;;4992293;28;20459;-63
2023/12/03 12:29:25;;;;;;;16.37;5.83;;;4.70;98.00;;;;;;4992413;28;20500;-63
2023/12/03 12:31:54;;;;;;;22.23;7.80;;;5.00;98.00;;;;;;4992231;28;20461;-64
2023/12/03 12:34:24;;;;;;;17.50;7.00;;;5.30;98.00;;;;;;4992170;28;20457;-63
2023/12/03 12:37:02;;;;;;;18.73;6.10;;;5.70;98.00;;;;;;4992226;28;20465;-63
2023/12/03 12:39:30;;;;;;;13.00;5.67;;;5.80;98.00;;;;;;4991992;28;20484;-64
2023/12/03 12:41:57;;;;;;;14.23;5.67;;;6.00;98.00;;;;;;4991528;28;20939;-63
2023/12/03 12:44:38;;;;;;;11.33;5.17;;;6.20;98.00;;;;;;4991830;28;20466;-64
2023/12/03 12:47:07;;;;;;;16.07;6.67;;;6.40;98.00;;;;;;4991940;28;20557;-63
2023/12/03 12:49:34;;;;;;;14.77;5.70;;;6.40;98.00;;;;;;4991919;28;20571;-64